x

Matinicus Rock, Me (mism1) Weather Station

1:00pm - Sun 26th Mar 2017 All times are EDT. -4 hours from GMT.

  • Wind
    6mph
  • 空気 Temp 31°f
  • Sea Pressure 1034.9mb
  • Matinicus Rock, Me
  • Matinicus Rock, Me

More Historic Weather Station data

Upgrade to MSW Pro to gain access to the past 30 days of data for over 8000 Wavebouys and Weather Stations around the globe.

Join Pro

Comparision Forecast

View Surf forecast
   
Sun 03/26 1:00pm 6
mph
1034.9mb 31f
12:00pm 7 9 mph 1035.4mb 29f
11:00am 14 16 mph 1035.1mb 28f
10:00am 15 17 mph 1035.4mb 28f
9:00am 16 18 mph 1034.9mb 28f
8:00am 17 21 mph 1034.6mb 29f
7:00am 14 17 mph 1034mb 29f
6:00am 16 20 mph 1033.2mb 30f
5:00am 17 21 mph 1032.4mb 32f
4:00am 21 22 mph 1031mb 32f
3:00am 16 18 mph 1030.8mb 34f
2:00am 20 21 mph 1030.2mb 35f
1:00am 22 23 mph 1029.7mb 36f
12:00am 21 22 mph 1029.2mb 37f
Sat 03/25 11:00pm 20 22 mph 1028.3mb 39f
10:00pm 14
mph
1027.6mb 38f
9:00pm 16 18 mph 1026.8mb 38f
8:00pm 18 20 mph 1026mb 38f
7:00pm 16 17 mph 1024.9mb 38f
6:00pm 18 20 mph 1024.4mb 38f
5:00pm 16 17 mph 1023.9mb 38f
4:00pm 13 14 mph 1023.9mb 38f
3:00pm 14 16 mph 1023.8mb 37f
2:00pm 3 5 mph 1023.3mb 38f
1:00pm 10
mph
1023.2mb 37f
12:00pm 9 10 mph 1022.8mb 37f
11:00am 10 11 mph 1022.9mb 36f
10:00am 16 17 mph 1022.6mb 35f
9:00am 20 22 mph 1022.3mb 35f
8:00am 21 23 mph 1021mb 35f
7:00am 17 20 mph 1019.6mb 35f
6:00am 20 21 mph 1018.8mb 35f
5:00am 13 14 mph 1018.2mb 35f
4:00am 13 14 mph 1017mb 35f
3:00am 14 15 mph 1016.4mb 35f
2:00am 17 18 mph 1016.8mb 35f
1:00am 18 20 mph 1016.6mb 36f
12:00am 17 18 mph 1016.6mb 37f
Fri 03/24 11:00pm 17 18 mph 1016.3mb 38f
10:00pm 14 15 mph 1017mb 38f
9:00pm 24 26 mph 1017.9mb 38f
8:00pm 26 28 mph 1018.4mb 38f
7:00pm 32 37 mph 1018.7mb 36f
6:00pm 34 39 mph 1020mb 35f
5:00pm 36 39 mph 1021.4mb 34f
4:00pm 33 38 mph 1022.7mb 33f
3:00pm 33 36 mph 1023.9mb 33f
2:00pm 30 32 mph 1025.6mb 31f
1:00pm 32 36 mph 1028mb 31f
12:00pm 29 32 mph 1029mb 30f
11:00am 31 33 mph 1030.2mb 33f
10:00am 23 24 mph 1030.3mb 32f
9:00am 21 23 mph 1031.3mb 32f
8:00am 16 18 mph 1031.2mb 31f
7:00am 9 10 mph 1031.8mb 30f
6:00am 5 8 mph 1031.9mb 29f
5:00am 6 8 mph 1032.2mb 29f
4:00am 6 7 mph 1031.7mb 29f
3:00am 7 10 mph 1032mb 28f
2:00am 11 14 mph 1032.6mb 28f
1:00am 10 11 mph 1032.3mb 27f
12:00am 15 17 mph 1032.2mb 27f
Thu 03/23 11:00pm 20 22 mph 1031.8mb 28f
10:00pm 22 25 mph 1031.4mb 28f
9:00pm 28 30 mph 1030.8mb 29f
8:00pm 24 26 mph 1029.2mb 30f
7:00pm 24 29 mph 1027.7mb 30f
6:00pm 32 34 mph 1026.8mb 31f
5:00pm 22 25 mph 1026.5mb 30f
4:00pm 25 28 mph 1026.1mb 29f
3:00pm 24 26 mph 1025.7mb 28f
2:00pm 22 24 mph 1025.7mb 26f
1:00pm 26 30 mph 1026.3mb 24f
12:00pm 29 32 mph 1026.6mb 22f
11:00am 22 26 mph 1027mb 19f
10:00am 28 30 mph 1026.7mb 18f
9:00am 34 38 mph 1026.6mb 17f
8:00am 31 34 mph 1026.5mb 17f
7:00am 34 38 mph 1025.4mb 15f
6:00am 36 40 mph 1024.3mb 16f
5:00am 37 39 mph 1023.3mb 16f
4:00am 38 44 mph 1022.6mb 17f
3:00am 41 49 mph 1021.8mb 17f
2:00am 44 49 mph 1021.3mb 18f
1:00am 45 49 mph 1020.6mb 18f
12:00am 41 47 mph 1020mb 18f
Wed 03/22 11:00pm 45 54 mph 1019.3mb 18f
10:00pm 44 53 mph 1018.4mb 18f
9:00pm 45 52 mph 1017.4mb 19f
8:00pm 44 49 mph 1016mb 20f
7:00pm 44 48 mph 1014.6mb 20f